10.12.2019

Aktuelles

Auszüge aus Reiseberichten unsere Mitglieder

kalifornien4
Reiseberichte

Kalifornien von oben

Eine Woche Zwischenstop in Santa Barbara sollte von uns Sichtfliegern unbedingt zu einem Erkundungsflug dieses vielfältigen und abwechslungsreichen Landstriches genutzt werden. Der Airport von Santa Barbara, KSBA, liegt einige Meilen westlich der Stadt. [Mehr …]

Reiseberichte

Rundflug durchs Paradies – Tahiti

Die Eindrücke, die Manfred Kunz beim Fliegen über Tahiti schildert, sind atemberaubend und die Bilder, die dabei entstanden sind machen einfach nur neidisch – natürlich im postiven Sinn! Und das nicht nur wegen des schönen, warmen Wetters dort „unten“! Traumhafte Highlights die das Fliegerherz höher schlagen lassen… [Mehr …]

ukbild1
Reiseberichte

Flug nach Frankreich

In seinem Reisebericht beschreibt Ulrich Kögler in seiner amüsanten und unverwechselbaren Art seine Erlebnisse und Erfahrungen, die er, zusammen mit seiner Frau, bei seinem Flug im September 2004 nach „Brie Champniers“ (LFBU) bei Angouleme, was etwa 100km nordöstlich von Bordeaux liegt, gemacht hat. [Mehr …]

Flugzeug-Reservierung

Neueste Beiträge

METAR EDQM

EDQM 101750Z 20006KT CAVOK M02/M02 Q1023